sensor_id;sensor_type;location;lat;lon;timestamp;P1;durP1;ratioP1;P2;durP2;ratioP2
75358;SDS011;64046;51.978;5.934;2022-12-18T00:01:36;44.60;;;21.38;;
75358;SDS011;64046;51.978;5.934;2022-12-18T00:04:07;47.40;;;22.35;;
75358;SDS011;64046;51.978;5.934;2022-12-18T00:06:47;46.10;;;20.95;;
75358;SDS011;64046;51.978;5.934;2022-12-18T00:09:17;51.45;;;22.92;;
75358;SDS011;64046;51.978;5.934;2022-12-18T00:11:46;50.15;;;20.98;;
75358;SDS011;64046;51.978;5.934;2022-12-18T00:14:15;45.35;;;19.25;;
75358;SDS011;64046;51.978;5.934;2022-12-18T00:16:45;51.80;;;23.13;;
75358;SDS011;64046;51.978;5.934;2022-12-18T00:19:15;48.47;;;23.10;;
75358;SDS011;64046;51.978;5.934;2022-12-18T00:21:46;49.90;;;22.02;;
75358;SDS011;64046;51.978;5.934;2022-12-18T00:24:16;44.58;;;21.45;;
75358;SDS011;64046;51.978;5.934;2022-12-18T00:26:45;49.08;;;21.08;;
75358;SDS011;64046;51.978;5.934;2022-12-18T00:29:14;48.72;;;23.05;;
75358;SDS011;64046;51.978;5.934;2022-12-18T00:31:43;51.88;;;24.25;;
75358;SDS011;64046;51.978;5.934;2022-12-18T00:34:12;50.65;;;21.35;;
75358;SDS011;64046;51.978;5.934;2022-12-18T00:36:42;46.72;;;20.55;;
75358;SDS011;64046;51.978;5.934;2022-12-18T00:39:14;45.92;;;20.55;;
75358;SDS011;64046;51.978;5.934;2022-12-18T00:41:44;39.97;;;20.40;;
75358;SDS011;64046;51.978;5.934;2022-12-18T00:44:26;44.10;;;19.73;;
75358;SDS011;64046;51.978;5.934;2022-12-18T00:46:55;42.35;;;18.67;;
75358;SDS011;64046;51.978;5.934;2022-12-18T00:49:24;41.45;;;20.65;;
75358;SDS011;64046;51.978;5.934;2022-12-18T00:51:54;42.13;;;20.38;;
75358;SDS011;64046;51.978;5.934;2022-12-18T00:54:26;40.85;;;18.42;;
75358;SDS011;64046;51.978;5.934;2022-12-18T00:56:56;43.08;;;20.15;;
75358;SDS011;64046;51.978;5.934;2022-12-18T00:59:25;44.05;;;21.02;;
75358;SDS011;64046;51.978;5.934;2022-12-18T01:01:55;39.70;;;19.08;;
75358;SDS011;64046;51.978;5.934;2022-12-18T01:04:25;38.08;;;17.45;;
75358;SDS011;64046;51.978;5.934;2022-12-18T01:06:54;46.15;;;21.33;;
75358;SDS011;64046;51.978;5.934;2022-12-18T01:09:25;47.58;;;20.55;;
75358;SDS011;64046;51.978;5.934;2022-12-18T01:11:55;37.83;;;17.52;;
75358;SDS011;64046;51.978;5.934;2022-12-18T01:14:24;39.00;;;18.40;;
75358;SDS011;64046;51.978;5.934;2022-12-18T01:16:53;40.10;;;19.98;;
75358;SDS011;64046;51.978;5.934;2022-12-18T01:19:22;43.22;;;20.33;;
75358;SDS011;64046;51.978;5.934;2022-12-18T01:21:54;44.47;;;20.33;;
75358;SDS011;64046;51.978;5.934;2022-12-18T01:24:26;43.95;;;20.10;;
75358;SDS011;64046;51.978;5.934;2022-12-18T01:26:56;43.30;;;20.95;;
75358;SDS011;64046;51.978;5.934;2022-12-18T01:29:26;45.35;;;18.85;;
75358;SDS011;64046;51.978;5.934;2022-12-18T01:31:55;39.97;;;19.23;;
75358;SDS011;64046;51.978;5.934;2022-12-18T01:34:24;40.35;;;18.05;;
75358;SDS011;64046;51.978;5.934;2022-12-18T01:36:54;45.20;;;19.98;;
75358;SDS011;64046;51.978;5.934;2022-12-18T01:39:25;40.42;;;19.33;;
75358;SDS011;64046;51.978;5.934;2022-12-18T01:41:57;36.85;;;17.05;;
75358;SDS011;64046;51.978;5.934;2022-12-18T01:44:51;37.72;;;18.30;;
75358;SDS011;64046;51.978;5.934;2022-12-18T01:47:25;41.83;;;18.38;;
75358;SDS011;64046;51.978;5.934;2022-12-18T01:49:58;39.35;;;19.63;;
75358;SDS011;64046;51.978;5.934;2022-12-18T01:52:30;39.25;;;18.10;;
75358;SDS011;64046;51.978;5.934;2022-12-18T01:55:04;46.10;;;19.83;;
75358;SDS011;64046;51.978;5.934;2022-12-18T01:57:35;37.00;;;18.08;;
75358;SDS011;64046;51.978;5.934;2022-12-18T02:00:07;37.00;;;17.63;;
75358;SDS011;64046;51.978;5.934;2022-12-18T02:02:41;39.47;;;17.88;;
75358;SDS011;64046;51.978;5.934;2022-12-18T02:05:12;36.40;;;17.45;;
75358;SDS011;64046;51.978;5.934;2022-12-18T02:07:48;36.00;;;17.75;;
75358;SDS011;64046;51.978;5.934;2022-12-18T02:10:34;40.33;;;19.73;;
75358;SDS011;64046;51.978;5.934;2022-12-18T02:13:13;36.85;;;16.45;;
75358;SDS011;64046;51.978;5.934;2022-12-18T02:15:51;36.92;;;18.30;;
75358;SDS011;64046;51.978;5.934;2022-12-18T02:18:28;39.75;;;18.05;;
75358;SDS011;64046;51.978;5.934;2022-12-18T02:21:03;37.22;;;17.85;;
75358;SDS011;64046;51.978;5.934;2022-12-18T02:23:45;33.95;;;15.15;;
75358;SDS011;64046;51.978;5.934;2022-12-18T02:26:24;35.03;;;16.75;;
75358;SDS011;64046;51.978;5.934;2022-12-18T02:28:59;33.45;;;16.48;;
75358;SDS011;64046;51.978;5.934;2022-12-18T02:31:36;38.65;;;17.77;;
75358;SDS011;64046;51.978;5.934;2022-12-18T02:34:08;35.45;;;16.50;;
75358;SDS011;64046;51.978;5.934;2022-12-18T02:36:40;37.65;;;18.77;;
75358;SDS011;64046;51.978;5.934;2022-12-18T02:39:12;42.10;;;19.50;;
75358;SDS011;64046;51.978;5.934;2022-12-18T02:41:58;39.88;;;17.77;;
75358;SDS011;64046;51.978;5.934;2022-12-18T02:44:34;37.45;;;17.42;;
75358;SDS011;64046;51.978;5.934;2022-12-18T02:47:04;41.80;;;18.67;;
75358;SDS011;64046;51.978;5.934;2022-12-18T02:49:35;41.50;;;18.67;;
75358;SDS011;64046;51.978;5.934;2022-12-18T02:52:16;39.58;;;18.70;;
75358;SDS011;64046;51.978;5.934;2022-12-18T02:54:55;38.88;;;18.05;;
75358;SDS011;64046;51.978;5.934;2022-12-18T02:57:36;35.78;;;17.13;;
75358;SDS011;64046;51.978;5.934;2022-12-18T03:00:12;34.30;;;17.10;;
75358;SDS011;64046;51.978;5.934;2022-12-18T03:02:46;36.40;;;17.10;;
75358;SDS011;64046;51.978;5.934;2022-12-18T03:05:21;38.03;;;18.48;;
75358;SDS011;64046;51.978;5.934;2022-12-18T03:07:55;35.17;;;16.70;;
75358;SDS011;64046;51.978;5.934;2022-12-18T03:10:31;35.83;;;17.00;;
75358;SDS011;64046;51.978;5.934;2022-12-18T03:13:06;33.40;;;16.05;;
75358;SDS011;64046;51.978;5.934;2022-12-18T03:15:38;33.55;;;15.43;;
75358;SDS011;64046;51.978;5.934;2022-12-18T03:18:13;44.92;;;17.40;;
75358;SDS011;64046;51.978;5.934;2022-12-18T03:20:46;35.78;;;17.00;;
75358;SDS011;64046;51.978;5.934;2022-12-18T03:23:20;36.65;;;17.42;;
75358;SDS011;64046;51.978;5.934;2022-12-18T03:25:54;33.65;;;14.80;;
75358;SDS011;64046;51.978;5.934;2022-12-18T03:28:29;31.92;;;15.63;;
75358;SDS011;64046;51.978;5.934;2022-12-18T03:31:04;31.92;;;15.48;;
75358;SDS011;64046;51.978;5.934;2022-12-18T03:33:37;29.52;;;14.48;;
75358;SDS011;64046;51.978;5.934;2022-12-18T03:36:10;26.65;;;14.30;;
75358;SDS011;64046;51.978;5.934;2022-12-18T03:38:40;35.88;;;15.77;;
75358;SDS011;64046;51.978;5.934;2022-12-18T03:41:12;34.85;;;14.45;;
75358;SDS011;64046;51.978;5.934;2022-12-18T03:44:10;30.35;;;15.00;;
75358;SDS011;64046;51.978;5.934;2022-12-18T03:46:46;29.88;;;14.77;;
75358;SDS011;64046;51.978;5.934;2022-12-18T03:49:25;31.92;;;14.55;;
75358;SDS011;64046;51.978;5.934;2022-12-18T03:52:03;32.40;;;14.88;;
75358;SDS011;64046;51.978;5.934;2022-12-18T03:54:34;25.55;;;12.65;;
75358;SDS011;64046;51.978;5.934;2022-12-18T03:57:11;66.57;;;26.20;;
75358;SDS011;64046;51.978;5.934;2022-12-18T03:59:47;45.72;;;18.98;;
75358;SDS011;64046;51.978;5.934;2022-12-18T04:02:23;59.70;;;26.90;;
75358;SDS011;64046;51.978;5.934;2022-12-18T04:04:56;44.90;;;21.67;;
75358;SDS011;64046;51.978;5.934;2022-12-18T04:07:27;29.42;;;15.00;;
75358;SDS011;64046;51.978;5.934;2022-12-18T04:09:58;95.43;;;26.85;;
75358;SDS011;64046;51.978;5.934;2022-12-18T04:12:31;36.25;;;14.52;;
75358;SDS011;64046;51.978;5.934;2022-12-18T04:15:04;31.05;;;14.27;;
75358;SDS011;64046;51.978;5.934;2022-12-18T04:17:34;27.92;;;12.30;;
75358;SDS011;64046;51.978;5.934;2022-12-18T04:20:04;22.70;;;11.52;;
75358;SDS011;64046;51.978;5.934;2022-12-18T04:22:35;26.45;;;11.45;;
75358;SDS011;64046;51.978;5.934;2022-12-18T04:25:05;21.35;;;11.15;;
75358;SDS011;64046;51.978;5.934;2022-12-18T04:27:38;25.50;;;12.10;;
75358;SDS011;64046;51.978;5.934;2022-12-18T04:30:11;25.00;;;12.43;;
75358;SDS011;64046;51.978;5.934;2022-12-18T04:32:40;23.88;;;12.93;;
75358;SDS011;64046;51.978;5.934;2022-12-18T04:35:10;24.38;;;11.45;;
75358;SDS011;64046;51.978;5.934;2022-12-18T04:37:42;20.95;;;11.27;;
75358;SDS011;64046;51.978;5.934;2022-12-18T04:40:11;24.40;;;12.35;;
75358;SDS011;64046;51.978;5.934;2022-12-18T04:42:44;24.63;;;11.93;;
75358;SDS011;64046;51.978;5.934;2022-12-18T04:45:16;25.65;;;12.35;;
75358;SDS011;64046;51.978;5.934;2022-12-18T04:47:45;23.70;;;10.77;;
75358;SDS011;64046;51.978;5.934;2022-12-18T04:50:14;23.52;;;12.20;;
75358;SDS011;64046;51.978;5.934;2022-12-18T04:52:45;19.83;;;9.52;;
75358;SDS011;64046;51.978;5.934;2022-12-18T04:55:14;20.90;;;10.73;;
75358;SDS011;64046;51.978;5.934;2022-12-18T04:57:43;23.45;;;11.23;;
75358;SDS011;64046;51.978;5.934;2022-12-18T05:00:13;20.45;;;10.98;;
75358;SDS011;64046;51.978;5.934;2022-12-18T05:02:46;26.95;;;11.63;;
75358;SDS011;64046;51.978;5.934;2022-12-18T05:05:15;20.40;;;10.27;;
75358;SDS011;64046;51.978;5.934;2022-12-18T05:07:44;20.30;;;10.73;;
75358;SDS011;64046;51.978;5.934;2022-12-18T05:10:14;19.58;;;10.05;;
75358;SDS011;64046;51.978;5.934;2022-12-18T05:12:43;21.20;;;10.57;;
75358;SDS011;64046;51.978;5.934;2022-12-18T05:15:29;22.55;;;10.70;;
75358;SDS011;64046;51.978;5.934;2022-12-18T05:18:00;20.40;;;10.35;;
75358;SDS011;64046;51.978;5.934;2022-12-18T05:20:30;22.67;;;10.75;;
75358;SDS011;64046;51.978;5.934;2022-12-18T05:23:00;22.10;;;10.43;;
75358;SDS011;64046;51.978;5.934;2022-12-18T05:25:29;20.42;;;9.55;;
75358;SDS011;64046;51.978;5.934;2022-12-18T05:27:58;22.30;;;10.45;;
75358;SDS011;64046;51.978;5.934;2022-12-18T05:30:30;17.63;;;9.90;;
75358;SDS011;64046;51.978;5.934;2022-12-18T05:32:59;18.75;;;9.68;;
75358;SDS011;64046;51.978;5.934;2022-12-18T05:35:28;18.58;;;10.52;;
75358;SDS011;64046;51.978;5.934;2022-12-18T05:37:57;18.40;;;9.90;;
75358;SDS011;64046;51.978;5.934;2022-12-18T05:40:27;16.05;;;8.70;;
75358;SDS011;64046;51.978;5.934;2022-12-18T05:42:56;20.70;;;10.48;;
75358;SDS011;64046;51.978;5.934;2022-12-18T05:45:25;17.95;;;9.43;;
75358;SDS011;64046;51.978;5.934;2022-12-18T05:47:57;21.65;;;10.70;;
75358;SDS011;64046;51.978;5.934;2022-12-18T05:50:26;16.23;;;9.15;;
75358;SDS011;64046;51.978;5.934;2022-12-18T05:53:00;18.67;;;9.30;;
75358;SDS011;64046;51.978;5.934;2022-12-18T05:55:32;16.77;;;8.90;;
75358;SDS011;64046;51.978;5.934;2022-12-18T05:58:02;20.55;;;9.75;;
75358;SDS011;64046;51.978;5.934;2022-12-18T06:00:33;21.50;;;11.45;;
75358;SDS011;64046;51.978;5.934;2022-12-18T06:03:08;18.13;;;9.23;;
75358;SDS011;64046;51.978;5.934;2022-12-18T06:05:39;17.60;;;9.07;;
75358;SDS011;64046;51.978;5.934;2022-12-18T06:08:11;19.23;;;9.80;;
75358;SDS011;64046;51.978;5.934;2022-12-18T06:10:41;19.77;;;9.75;;
75358;SDS011;64046;51.978;5.934;2022-12-18T06:13:10;17.70;;;9.60;;
75358;SDS011;64046;51.978;5.934;2022-12-18T06:15:39;18.00;;;9.02;;
75358;SDS011;64046;51.978;5.934;2022-12-18T06:18:11;17.15;;;8.75;;
75358;SDS011;64046;51.978;5.934;2022-12-18T06:20:40;17.83;;;9.48;;
75358;SDS011;64046;51.978;5.934;2022-12-18T06:23:09;17.50;;;8.68;;
75358;SDS011;64046;51.978;5.934;2022-12-18T06:25:39;19.55;;;9.43;;
75358;SDS011;64046;51.978;5.934;2022-12-18T06:28:08;22.50;;;10.93;;
75358;SDS011;64046;51.978;5.934;2022-12-18T06:30:37;17.77;;;9.63;;
75358;SDS011;64046;51.978;5.934;2022-12-18T06:33:06;15.90;;;9.45;;
75358;SDS011;64046;51.978;5.934;2022-12-18T06:35:38;19.30;;;10.18;;
75358;SDS011;64046;51.978;5.934;2022-12-18T06:38:07;16.45;;;9.25;;
75358;SDS011;64046;51.978;5.934;2022-12-18T06:40:37;18.17;;;9.70;;
75358;SDS011;64046;51.978;5.934;2022-12-18T06:43:07;19.02;;;9.60;;
75358;SDS011;64046;51.978;5.934;2022-12-18T06:45:37;18.42;;;9.18;;
75358;SDS011;64046;51.978;5.934;2022-12-18T06:48:06;17.45;;;8.30;;
75358;SDS011;64046;51.978;5.934;2022-12-18T06:50:41;18.30;;;9.60;;
75358;SDS011;64046;51.978;5.934;2022-12-18T06:53:10;22.55;;;10.23;;
75358;SDS011;64046;51.978;5.934;2022-12-18T06:55:39;23.23;;;11.13;;
75358;SDS011;64046;51.978;5.934;2022-12-18T06:58:09;21.27;;;9.98;;
75358;SDS011;64046;51.978;5.934;2022-12-18T07:00:38;17.50;;;9.70;;
75358;SDS011;64046;51.978;5.934;2022-12-18T07:03:07;19.38;;;9.75;;
75358;SDS011;64046;51.978;5.934;2022-12-18T07:05:41;18.13;;;9.95;;
75358;SDS011;64046;51.978;5.934;2022-12-18T07:08:10;20.40;;;10.20;;
75358;SDS011;64046;51.978;5.934;2022-12-18T07:10:41;20.88;;;9.77;;
75358;SDS011;64046;51.978;5.934;2022-12-18T07:13:10;20.75;;;9.77;;
75358;SDS011;64046;51.978;5.934;2022-12-18T07:15:40;18.45;;;9.63;;
75358;SDS011;64046;51.978;5.934;2022-12-18T07:18:09;18.55;;;9.05;;
75358;SDS011;64046;51.978;5.934;2022-12-18T07:20:38;22.08;;;9.15;;
75358;SDS011;64046;51.978;5.934;2022-12-18T07:23:10;19.52;;;9.73;;
75358;SDS011;64046;51.978;5.934;2022-12-18T07:25:39;20.67;;;10.48;;
75358;SDS011;64046;51.978;5.934;2022-12-18T07:28:08;23.20;;;11.02;;
75358;SDS011;64046;51.978;5.934;2022-12-18T07:30:38;19.35;;;10.57;;
75358;SDS011;64046;51.978;5.934;2022-12-18T07:33:07;18.20;;;9.93;;
75358;SDS011;64046;51.978;5.934;2022-12-18T07:35:36;18.00;;;9.93;;
75358;SDS011;64046;51.978;5.934;2022-12-18T07:38:05;21.10;;;11.45;;
75358;SDS011;64046;51.978;5.934;2022-12-18T07:40:37;19.95;;;10.63;;
75358;SDS011;64046;51.978;5.934;2022-12-18T07:43:06;20.85;;;10.88;;
75358;SDS011;64046;51.978;5.934;2022-12-18T07:45:35;15.73;;;8.80;;
75358;SDS011;64046;51.978;5.934;2022-12-18T07:48:05;18.45;;;10.07;;
75358;SDS011;64046;51.978;5.934;2022-12-18T07:50:34;17.42;;;8.60;;
75358;SDS011;64046;51.978;5.934;2022-12-18T07:53:03;16.98;;;9.65;;
75358;SDS011;64046;51.978;5.934;2022-12-18T07:55:32;18.60;;;9.23;;
75358;SDS011;64046;51.978;5.934;2022-12-18T07:58:04;19.48;;;9.70;;
75358;SDS011;64046;51.978;5.934;2022-12-18T08:00:33;16.90;;;10.10;;
75358;SDS011;64046;51.978;5.934;2022-12-18T08:03:03;22.70;;;10.07;;
75358;SDS011;64046;51.978;5.934;2022-12-18T08:05:32;20.08;;;9.65;;
75358;SDS011;64046;51.978;5.934;2022-12-18T08:08:01;19.33;;;9.02;;
75358;SDS011;64046;51.978;5.934;2022-12-18T08:10:30;14.90;;;8.50;;
75358;SDS011;64046;51.978;5.934;2022-12-18T08:13:00;17.30;;;9.15;;
75358;SDS011;64046;51.978;5.934;2022-12-18T08:15:31;27.73;;;8.90;;
75358;SDS011;64046;51.978;5.934;2022-12-18T08:18:01;17.58;;;9.65;;
75358;SDS011;64046;51.978;5.934;2022-12-18T08:20:30;15.90;;;8.32;;
75358;SDS011;64046;51.978;5.934;2022-12-18T08:22:59;19.33;;;9.20;;
75358;SDS011;64046;51.978;5.934;2022-12-18T08:25:28;17.08;;;9.55;;
75358;SDS011;64046;51.978;5.934;2022-12-18T08:27:57;17.75;;;9.18;;
75358;SDS011;64046;51.978;5.934;2022-12-18T08:30:26;14.85;;;8.73;;
75358;SDS011;64046;51.978;5.934;2022-12-18T08:32:58;16.73;;;8.82;;
75358;SDS011;64046;51.978;5.934;2022-12-18T08:35:27;19.42;;;8.23;;
75358;SDS011;64046;51.978;5.934;2022-12-18T08:37:57;16.42;;;8.32;;
75358;SDS011;64046;51.978;5.934;2022-12-18T08:40:26;17.13;;;8.88;;
75358;SDS011;64046;51.978;5.934;2022-12-18T08:42:55;16.92;;;8.57;;
75358;SDS011;64046;51.978;5.934;2022-12-18T08:45:37;14.13;;;7.90;;
75358;SDS011;64046;51.978;5.934;2022-12-18T08:48:08;17.80;;;8.60;;
75358;SDS011;64046;51.978;5.934;2022-12-18T08:50:37;15.20;;;8.02;;
75358;SDS011;64046;51.978;5.934;2022-12-18T08:53:07;13.70;;;7.47;;
75358;SDS011;64046;51.978;5.934;2022-12-18T08:55:36;13.43;;;7.55;;
75358;SDS011;64046;51.978;5.934;2022-12-18T08:58:05;15.50;;;7.82;;
75358;SDS011;64046;51.978;5.934;2022-12-18T09:00:34;15.32;;;7.18;;
75358;SDS011;64046;51.978;5.934;2022-12-18T09:03:03;13.77;;;8.25;;
75358;SDS011;64046;51.978;5.934;2022-12-18T09:05:35;14.00;;;7.60;;
75358;SDS011;64046;51.978;5.934;2022-12-18T09:08:05;12.13;;;6.07;;
75358;SDS011;64046;51.978;5.934;2022-12-18T09:10:40;14.13;;;6.45;;
75358;SDS011;64046;51.978;5.934;2022-12-18T09:13:10;10.82;;;6.57;;
75358;SDS011;64046;51.978;5.934;2022-12-18T09:15:41;10.40;;;6.18;;
75358;SDS011;64046;51.978;5.934;2022-12-18T09:18:11;11.95;;;6.80;;
75358;SDS011;64046;51.978;5.934;2022-12-18T09:20:43;12.65;;;6.43;;
75358;SDS011;64046;51.978;5.934;2022-12-18T09:23:12;11.52;;;6.45;;
75358;SDS011;64046;51.978;5.934;2022-12-18T09:25:42;10.60;;;5.72;;
75358;SDS011;64046;51.978;5.934;2022-12-18T09:28:15;12.27;;;6.68;;
75358;SDS011;64046;51.978;5.934;2022-12-18T09:30:46;13.32;;;6.78;;
75358;SDS011;64046;51.978;5.934;2022-12-18T09:33:17;18.00;;;6.63;;
75358;SDS011;64046;51.978;5.934;2022-12-18T09:35:49;9.63;;;5.93;;
75358;SDS011;64046;51.978;5.934;2022-12-18T09:38:19;13.55;;;6.18;;
75358;SDS011;64046;51.978;5.934;2022-12-18T09:40:49;13.30;;;7.13;;
75358;SDS011;64046;51.978;5.934;2022-12-18T09:43:22;12.68;;;6.47;;
75358;SDS011;64046;51.978;5.934;2022-12-18T09:45:58;12.13;;;5.50;;
75358;SDS011;64046;51.978;5.934;2022-12-18T09:48:32;12.20;;;7.18;;
75358;SDS011;64046;51.978;5.934;2022-12-18T09:51:09;11.98;;;6.32;;
75358;SDS011;64046;51.978;5.934;2022-12-18T09:53:44;13.15;;;6.63;;
75358;SDS011;64046;51.978;5.934;2022-12-18T09:56:19;11.55;;;6.25;;
75358;SDS011;64046;51.978;5.934;2022-12-18T09:58:53;11.70;;;6.35;;
75358;SDS011;64046;51.978;5.934;2022-12-18T10:01:27;11.88;;;6.22;;
75358;SDS011;64046;51.978;5.934;2022-12-18T10:04:00;12.93;;;6.45;;
75358;SDS011;64046;51.978;5.934;2022-12-18T10:06:33;12.00;;;5.70;;
75358;SDS011;64046;51.978;5.934;2022-12-18T10:09:09;12.85;;;6.72;;
75358;SDS011;64046;51.978;5.934;2022-12-18T10:11:47;11.82;;;6.03;;
75358;SDS011;64046;51.978;5.934;2022-12-18T10:14:23;13.95;;;7.40;;
75358;SDS011;64046;51.978;5.934;2022-12-18T10:16:59;11.65;;;6.00;;
75358;SDS011;64046;51.978;5.934;2022-12-18T10:19:42;13.05;;;6.57;;
75358;SDS011;64046;51.978;5.934;2022-12-18T10:25:15;12.02;;;6.20;;
75358;SDS011;64046;51.978;5.934;2022-12-18T10:27:53;12.98;;;7.00;;
75358;SDS011;64046;51.978;5.934;2022-12-18T10:30:26;12.30;;;6.18;;
75358;SDS011;64046;51.978;5.934;2022-12-18T10:32:59;12.75;;;6.68;;
75358;SDS011;64046;51.978;5.934;2022-12-18T10:35:29;13.63;;;6.53;;
75358;SDS011;64046;51.978;5.934;2022-12-18T10:38:02;11.25;;;6.47;;
75358;SDS011;64046;51.978;5.934;2022-12-18T10:40:32;10.90;;;6.50;;
75358;SDS011;64046;51.978;5.934;2022-12-18T10:43:20;11.25;;;6.03;;
75358;SDS011;64046;51.978;5.934;2022-12-18T10:45:58;13.32;;;7.20;;
75358;SDS011;64046;51.978;5.934;2022-12-18T10:48:50;12.50;;;6.88;;
75358;SDS011;64046;51.978;5.934;2022-12-18T10:51:23;11.23;;;6.53;;
75358;SDS011;64046;51.978;5.934;2022-12-18T10:53:59;13.68;;;6.70;;
75358;SDS011;64046;51.978;5.934;2022-12-18T10:56:30;11.68;;;6.72;;
75358;SDS011;64046;51.978;5.934;2022-12-18T10:59:03;15.68;;;7.40;;
75358;SDS011;64046;51.978;5.934;2022-12-18T11:01:44;12.95;;;7.00;;
75358;SDS011;64046;51.978;5.934;2022-12-18T11:04:17;13.57;;;6.80;;
75358;SDS011;64046;51.978;5.934;2022-12-18T11:06:55;12.05;;;6.70;;
75358;SDS011;64046;51.978;5.934;2022-12-18T11:09:29;11.90;;;6.63;;
75358;SDS011;64046;51.978;5.934;2022-12-18T11:12:00;11.77;;;6.88;;
75358;SDS011;64046;51.978;5.934;2022-12-18T11:14:33;14.90;;;7.90;;
75358;SDS011;64046;51.978;5.934;2022-12-18T11:17:17;15.18;;;7.63;;
75358;SDS011;64046;51.978;5.934;2022-12-18T11:19:52;14.80;;;7.25;;
75358;SDS011;64046;51.978;5.934;2022-12-18T11:22:23;16.05;;;8.45;;
75358;SDS011;64046;51.978;5.934;2022-12-18T11:24:58;13.43;;;7.43;;
75358;SDS011;64046;51.978;5.934;2022-12-18T11:27:29;13.18;;;6.88;;
75358;SDS011;64046;51.978;5.934;2022-12-18T11:30:06;12.93;;;7.70;;
75358;SDS011;64046;51.978;5.934;2022-12-18T11:32:38;13.98;;;7.70;;
75358;SDS011;64046;51.978;5.934;2022-12-18T11:35:14;14.18;;;7.80;;
75358;SDS011;64046;51.978;5.934;2022-12-18T11:37:49;12.45;;;7.72;;
75358;SDS011;64046;51.978;5.934;2022-12-18T11:40:30;14.70;;;8.00;;
75358;SDS011;64046;51.978;5.934;2022-12-18T11:43:06;13.63;;;8.13;;
75358;SDS011;64046;51.978;5.934;2022-12-18T11:45:40;15.73;;;7.95;;
75358;SDS011;64046;51.978;5.934;2022-12-18T11:48:16;15.57;;;7.97;;
75358;SDS011;64046;51.978;5.934;2022-12-18T11:50:51;12.48;;;7.47;;
75358;SDS011;64046;51.978;5.934;2022-12-18T11:53:22;14.00;;;7.38;;
75358;SDS011;64046;51.978;5.934;2022-12-18T11:55:58;13.02;;;7.45;;
75358;SDS011;64046;51.978;5.934;2022-12-18T11:58:42;13.65;;;7.78;;
75358;SDS011;64046;51.978;5.934;2022-12-18T12:01:26;13.55;;;8.07;;
75358;SDS011;64046;51.978;5.934;2022-12-18T12:04:19;13.50;;;7.90;;
75358;SDS011;64046;51.978;5.934;2022-12-18T12:07:12;12.70;;;7.00;;
75358;SDS011;64046;51.978;5.934;2022-12-18T12:09:55;11.77;;;6.50;;
75358;SDS011;64046;51.978;5.934;2022-12-18T12:12:44;14.68;;;7.22;;
75358;SDS011;64046;51.978;5.934;2022-12-18T12:15:27;16.67;;;8.27;;
75358;SDS011;64046;51.978;5.934;2022-12-18T12:18:06;12.35;;;6.30;;
75358;SDS011;64046;51.978;5.934;2022-12-18T12:20:45;14.70;;;7.85;;
75358;SDS011;64046;51.978;5.934;2022-12-18T12:23:22;14.40;;;7.22;;
75358;SDS011;64046;51.978;5.934;2022-12-18T12:26:00;16.13;;;8.30;;
75358;SDS011;64046;51.978;5.934;2022-12-18T12:28:47;11.93;;;7.18;;
75358;SDS011;64046;51.978;5.934;2022-12-18T12:31:29;15.48;;;7.80;;
75358;SDS011;64046;51.978;5.934;2022-12-18T12:34:09;14.38;;;7.35;;
75358;SDS011;64046;51.978;5.934;2022-12-18T12:36:50;13.82;;;7.10;;
75358;SDS011;64046;51.978;5.934;2022-12-18T12:39:27;16.48;;;7.70;;
75358;SDS011;64046;51.978;5.934;2022-12-18T12:42:00;18.38;;;8.95;;
75358;SDS011;64046;51.978;5.934;2022-12-18T12:44:46;13.48;;;7.85;;
75358;SDS011;64046;51.978;5.934;2022-12-18T12:47:20;11.68;;;7.20;;
75358;SDS011;64046;51.978;5.934;2022-12-18T12:49:54;14.35;;;7.18;;
75358;SDS011;64046;51.978;5.934;2022-12-18T12:52:27;16.25;;;8.23;;
75358;SDS011;64046;51.978;5.934;2022-12-18T12:54:59;13.18;;;6.70;;
75358;SDS011;64046;51.978;5.934;2022-12-18T12:57:31;12.80;;;7.30;;
75358;SDS011;64046;51.978;5.934;2022-12-18T13:00:08;15.35;;;8.13;;
75358;SDS011;64046;51.978;5.934;2022-12-18T13:02:42;14.88;;;7.80;;
75358;SDS011;64046;51.978;5.934;2022-12-18T13:05:18;14.18;;;8.27;;
75358;SDS011;64046;51.978;5.934;2022-12-18T13:07:53;18.17;;;9.18;;
75358;SDS011;64046;51.978;5.934;2022-12-18T13:10:31;13.32;;;7.20;;
75358;SDS011;64046;51.978;5.934;2022-12-18T13:13:03;19.58;;;7.65;;
75358;SDS011;64046;51.978;5.934;2022-12-18T13:15:37;17.58;;;7.53;;
75358;SDS011;64046;51.978;5.934;2022-12-18T13:18:12;13.70;;;7.90;;
75358;SDS011;64046;51.978;5.934;2022-12-18T13:20:45;16.90;;;9.02;;
75358;SDS011;64046;51.978;5.934;2022-12-18T13:23:19;14.43;;;7.65;;
75358;SDS011;64046;51.978;5.934;2022-12-18T13:26:00;13.30;;;7.53;;
75358;SDS011;64046;51.978;5.934;2022-12-18T13:29:02;13.02;;;7.45;;
75358;SDS011;64046;51.978;5.934;2022-12-18T13:34:29;15.15;;;7.18;;
75358;SDS011;64046;51.978;5.934;2022-12-18T13:43:23;14.48;;;7.68;;
75358;SDS011;64046;51.978;5.934;2022-12-18T13:46:00;15.57;;;7.78;;
75358;SDS011;64046;51.978;5.934;2022-12-18T13:48:35;15.20;;;8.13;;
75358;SDS011;64046;51.978;5.934;2022-12-18T13:51:07;16.25;;;7.65;;
75358;SDS011;64046;51.978;5.934;2022-12-18T13:53:49;23.98;;;9.75;;
75358;SDS011;64046;51.978;5.934;2022-12-18T13:56:22;12.52;;;7.68;;
75358;SDS011;64046;51.978;5.934;2022-12-18T14:01:42;18.15;;;9.43;;
75358;SDS011;64046;51.978;5.934;2022-12-18T14:04:16;13.65;;;7.65;;
75358;SDS011;64046;51.978;5.934;2022-12-18T14:06:49;13.23;;;7.50;;
75358;SDS011;64046;51.978;5.934;2022-12-18T14:09:21;18.50;;;8.82;;
75358;SDS011;64046;51.978;5.934;2022-12-18T14:11:53;15.20;;;7.55;;
75358;SDS011;64046;51.978;5.934;2022-12-18T14:14:45;13.77;;;7.25;;
75358;SDS011;64046;51.978;5.934;2022-12-18T14:17:16;15.55;;;8.90;;
75358;SDS011;64046;51.978;5.934;2022-12-18T14:19:49;15.38;;;7.45;;
75358;SDS011;64046;51.978;5.934;2022-12-18T14:22:20;13.30;;;7.63;;
75358;SDS011;64046;51.978;5.934;2022-12-18T14:25:06;14.32;;;8.05;;
75358;SDS011;64046;51.978;5.934;2022-12-18T14:27:44;14.93;;;7.40;;
75358;SDS011;64046;51.978;5.934;2022-12-18T14:30:24;20.67;;;8.93;;
75358;SDS011;64046;51.978;5.934;2022-12-18T14:33:01;15.15;;;7.25;;
75358;SDS011;64046;51.978;5.934;2022-12-18T14:35:36;13.57;;;7.00;;
75358;SDS011;64046;51.978;5.934;2022-12-18T14:40:56;15.45;;;7.45;;
75358;SDS011;64046;51.978;5.934;2022-12-18T14:43:26;16.70;;;7.90;;
75358;SDS011;64046;51.978;5.934;2022-12-18T14:45:57;18.85;;;8.02;;
75358;SDS011;64046;51.978;5.934;2022-12-18T14:48:34;12.80;;;7.45;;
75358;SDS011;64046;51.978;5.934;2022-12-18T14:51:14;15.85;;;8.05;;
75358;SDS011;64046;51.978;5.934;2022-12-18T14:53:46;15.25;;;8.60;;
75358;SDS011;64046;51.978;5.934;2022-12-18T14:56:17;14.68;;;7.32;;
75358;SDS011;64046;51.978;5.934;2022-12-18T14:58:53;19.20;;;9.30;;
75358;SDS011;64046;51.978;5.934;2022-12-18T15:01:25;14.93;;;8.10;;
75358;SDS011;64046;51.978;5.934;2022-12-18T15:03:57;14.93;;;8.68;;
75358;SDS011;64046;51.978;5.934;2022-12-18T15:06:31;15.02;;;7.95;;
75358;SDS011;64046;51.978;5.934;2022-12-18T15:09:03;16.33;;;9.07;;
75358;SDS011;64046;51.978;5.934;2022-12-18T15:11:48;19.92;;;8.93;;
75358;SDS011;64046;51.978;5.934;2022-12-18T15:14:24;17.45;;;9.73;;
75358;SDS011;64046;51.978;5.934;2022-12-18T15:17:03;16.83;;;8.85;;
75358;SDS011;64046;51.978;5.934;2022-12-18T15:19:37;15.25;;;9.15;;
75358;SDS011;64046;51.978;5.934;2022-12-18T15:25:03;17.77;;;8.85;;